Time;durP1;ratioP1;P1;durP2;ratioP2;P2;SDS_P1;SDS_P2;PMS_P1;PMS_P2;Temp;Humidity;BMP_temperature;BMP_pressure;BME280_temperature;BME280_humidity;BME280_pressure;Samples;Min_cycle;Max_cycle;Signal;HPM_P1;HPM_P2
2022/07/16 00:02:43;;;;;;;7.43;3.97;;;14.30;99.90;;;;;;5031933;28;20036;-56
2022/07/16 00:05:09;;;;;;;8.18;4.28;;;14.30;99.90;;;;;;5031974;28;20056;-54
2022/07/16 00:07:35;;;;;;;6.57;4.65;;;14.20;99.90;;;;;;5031268;28;20559;-58
2022/07/16 00:10:01;;;;;;;5.97;4.07;;;14.20;99.90;;;;;;5031010;28;20053;-56
2022/07/16 00:12:27;;;;;;;5.00;4.50;;;14.10;99.90;;;;;;5031774;28;20034;-54
2022/07/16 00:14:53;;;;;;;8.77;4.15;;;14.00;99.90;;;;;;5031538;28;20021;-54
2022/07/16 00:17:19;;;;;;;6.45;4.53;;;14.00;99.90;;;;;;5030274;28;20384;-55
2022/07/16 00:19:45;;;;;;;8.23;4.10;;;13.90;99.90;;;;;;5031473;28;20040;-55
2022/07/16 00:22:11;;;;;;;7.95;4.22;;;13.90;99.90;;;;;;5031685;28;20088;-55
2022/07/16 00:24:37;;;;;;;9.40;3.85;;;13.90;99.90;;;;;;5031674;28;20037;-57
2022/07/16 00:27:03;;;;;;;4.32;3.67;;;13.90;99.90;;;;;;5031724;28;20040;-56
2022/07/16 00:29:29;;;;;;;9.65;4.18;;;13.90;99.90;;;;;;5031765;28;20037;-57
2022/07/16 00:31:55;;;;;;;8.90;4.25;;;13.90;99.90;;;;;;5031321;28;20036;-56
2022/07/16 00:34:24;;;;;;;10.35;4.30;;;13.80;99.90;;;;;;5031546;28;20021;-56
2022/07/16 00:36:50;;;;;;;9.50;3.53;;;13.90;99.90;;;;;;5031126;28;20083;-54
2022/07/16 00:39:17;;;;;;;5.18;3.90;;;13.90;99.90;;;;;;5031726;28;20033;-55
2022/07/16 00:41:45;;;;;;;6.07;4.55;;;13.80;99.90;;;;;;5030786;28;20079;-57
2022/07/16 00:44:14;;;;;;;7.72;4.30;;;13.70;99.90;;;;;;5031557;28;20017;-54
2022/07/16 00:46:42;;;;;;;11.57;4.13;;;13.70;99.90;;;;;;5030641;28;20404;-56
2022/07/16 00:49:09;;;;;;;17.38;4.50;;;13.60;99.90;;;;;;5031258;28;20053;-54
2022/07/16 00:51:36;;;;;;;9.38;4.15;;;13.70;99.90;;;;;;5031347;28;20361;-52
2022/07/16 00:54:03;;;;;;;5.10;3.70;;;13.60;99.90;;;;;;5031370;28;20017;-56
2022/07/16 00:56:29;;;;;;;8.50;4.10;;;13.60;99.90;;;;;;5031157;28;20101;-57
2022/07/16 00:58:56;;;;;;;8.02;3.83;;;13.60;99.90;;;;;;5031391;28;20540;-54
2022/07/16 01:01:22;;;;;;;5.50;3.97;;;13.50;99.90;;;;;;5030703;28;20057;-55
2022/07/16 01:03:49;;;;;;;7.30;4.40;;;13.50;99.90;;;;;;5031178;28;20503;-55
2022/07/16 01:06:16;;;;;;;7.47;3.90;;;13.60;99.90;;;;;;5031509;28;20112;-56
2022/07/16 01:08:44;;;;;;;11.65;4.25;;;13.50;99.90;;;;;;5030629;28;20022;-54
2022/07/16 01:11:13;;;;;;;17.20;5.50;;;13.50;99.90;;;;;;5030914;28;20035;-58
2022/07/16 01:13:41;;;;;;;8.95;5.07;;;13.60;99.90;;;;;;5031096;28;20022;-52
2022/07/16 01:16:08;;;;;;;7.50;4.45;;;13.50;99.90;;;;;;5031165;28;20022;-54
2022/07/16 01:18:35;;;;;;;5.47;4.28;;;13.50;99.90;;;;;;5031027;28;20422;-55
2022/07/16 01:21:01;;;;;;;7.60;3.95;;;13.50;99.90;;;;;;5032882;28;20449;-55
2022/07/16 01:23:27;;;;;;;6.45;4.15;;;13.40;99.90;;;;;;5035189;28;20041;-56
2022/07/16 01:25:53;;;;;;;7.85;4.15;;;13.30;99.90;;;;;;5033862;28;20056;-55
2022/07/16 01:28:19;;;;;;;6.35;4.32;;;13.30;99.90;;;;;;5034887;28;20083;-57
2022/07/16 01:30:46;;;;;;;6.43;4.07;;;13.30;99.90;;;;;;5033276;28;20044;-54
2022/07/16 01:33:33;;;;;;;6.05;4.40;;;13.10;99.90;;;;;;5034720;28;20373;-58
2022/07/16 01:36:11;;;;;;;5.00;4.20;;;13.00;99.90;;;;;;5034858;28;20362;-57
2022/07/16 01:38:39;;;;;;;9.88;4.13;;;13.00;99.90;;;;;;5034969;28;20530;-55
2022/07/16 01:41:05;;;;;;;6.93;4.43;;;13.00;99.90;;;;;;5034253;28;20279;-56
2022/07/16 01:43:31;;;;;;;10.10;4.32;;;13.00;99.90;;;;;;5034656;28;20065;-55
2022/07/16 01:45:57;;;;;;;5.57;4.55;;;13.00;99.90;;;;;;5034800;28;20402;-58
2022/07/16 01:48:24;;;;;;;6.45;4.05;;;13.00;99.90;;;;;;5034132;28;20029;-56
2022/07/16 01:50:51;;;;;;;7.28;4.40;;;13.00;99.90;;;;;;5032935;28;20084;-56
2022/07/16 01:53:17;;;;;;;11.65;4.85;;;12.90;99.90;;;;;;5034330;28;20079;-53
2022/07/16 01:55:44;;;;;;;7.53;4.32;;;12.90;99.90;;;;;;5034247;28;20056;-55
2022/07/16 01:58:12;;;;;;;10.63;5.18;;;13.00;99.90;;;;;;5033932;28;20044;-56
2022/07/16 02:00:40;;;;;;;11.48;4.40;;;13.00;99.90;;;;;;5034237;28;20020;-56
2022/07/16 02:03:06;;;;;;;8.57;4.05;;;12.90;99.90;;;;;;5032909;28;20052;-56
2022/07/16 02:05:32;;;;;;;7.15;4.35;;;12.90;99.90;;;;;;5034158;28;20025;-53
2022/07/16 02:07:58;;;;;;;9.25;5.55;;;12.90;99.90;;;;;;5032726;28;20083;-56
2022/07/16 02:10:24;;;;;;;6.50;4.28;;;12.80;99.90;;;;;;5033938;28;20037;-56
2022/07/16 02:12:50;;;;;;;16.75;4.32;;;12.90;99.90;;;;;;5033885;28;20080;-57
2022/07/16 02:15:15;;;;;;;7.10;4.63;;;12.90;99.90;;;;;;5034282;28;20022;-55
2022/07/16 02:17:41;;;;;;;5.50;4.78;;;12.80;99.90;;;;;;5033723;28;20022;-55
2022/07/16 02:20:09;;;;;;;8.25;5.45;;;12.80;99.90;;;;;;5034097;28;20120;-57
2022/07/16 02:22:35;;;;;;;13.18;5.68;;;12.90;99.90;;;;;;5033936;28;20397;-55
2022/07/16 02:25:01;;;;;;;6.43;4.47;;;12.90;99.90;;;;;;5033562;28;20021;-56
2022/07/16 02:27:27;;;;;;;6.78;4.55;;;13.00;99.90;;;;;;5033963;28;20049;-57
2022/07/16 02:29:53;;;;;;;5.55;4.80;;;13.00;99.90;;;;;;5033828;28;20053;-55
2022/07/16 02:32:19;;;;;;;7.47;4.72;;;13.00;99.90;;;;;;5033150;28;20118;-53
2022/07/16 02:34:44;;;;;;;6.53;4.63;;;13.00;99.90;;;;;;5033247;28;20021;-56
2022/07/16 02:37:10;;;;;;;6.35;4.68;;;13.00;99.90;;;;;;5033829;28;20061;-52
2022/07/16 02:39:36;;;;;;;7.07;4.55;;;12.90;99.90;;;;;;5033571;28;20028;-57
2022/07/16 02:42:02;;;;;;;7.28;4.90;;;12.80;99.90;;;;;;5033627;28;20040;-54
2022/07/16 02:44:28;;;;;;;8.75;4.65;;;12.80;99.90;;;;;;5033680;28;20030;-52
2022/07/16 02:46:53;;;;;;;9.63;4.95;;;12.80;99.90;;;;;;5033527;28;20043;-59
2022/07/16 02:49:19;;;;;;;12.45;4.60;;;12.80;99.90;;;;;;5032118;28;20506;-56
2022/07/16 02:51:45;;;;;;;12.18;5.40;;;12.70;99.90;;;;;;5033278;28;20041;-55
2022/07/16 02:54:10;;;;;;;11.73;5.65;;;12.60;99.90;;;;;;5033295;28;20723;-55
2022/07/16 02:56:36;;;;;;;7.68;4.35;;;12.50;99.90;;;;;;5033270;28;20017;-57
2022/07/16 02:59:02;;;;;;;10.05;4.80;;;12.50;99.90;;;;;;5033404;28;20037;-55
2022/07/16 03:01:28;;;;;;;13.52;4.43;;;12.50;99.90;;;;;;5032868;28;20084;-55
2022/07/16 03:03:54;;;;;;;8.30;4.55;;;12.50;99.90;;;;;;5032579;28;20030;-57
2022/07/16 03:06:20;;;;;;;9.23;5.00;;;12.50;99.90;;;;;;5032908;28;20112;-54
2022/07/16 03:08:46;;;;;;;10.05;4.93;;;12.50;99.90;;;;;;5033066;28;20048;-54
2022/07/16 03:11:12;;;;;;;7.93;4.38;;;12.50;99.90;;;;;;5033029;28;20413;-53
2022/07/16 03:13:38;;;;;;;12.30;4.60;;;12.50;99.90;;;;;;5033133;28;20063;-52
2022/07/16 03:16:04;;;;;;;13.27;5.47;;;12.50;99.90;;;;;;5033218;28;20608;-51
2022/07/16 03:18:32;;;;;;;9.65;4.82;;;12.50;99.90;;;;;;5033023;28;20065;-57
2022/07/16 03:20:58;;;;;;;10.25;5.20;;;12.50;99.90;;;;;;5032551;28;20369;-51
2022/07/16 03:23:24;;;;;;;10.02;4.97;;;12.50;99.90;;;;;;5032879;28;20025;-58
2022/07/16 03:25:49;;;;;;;9.55;4.53;;;12.40;99.90;;;;;;5032631;28;20029;-53
2022/07/16 03:28:15;;;;;;;7.05;4.90;;;12.40;99.90;;;;;;5032717;28;20034;-55
2022/07/16 03:30:41;;;;;;;5.15;4.65;;;12.40;99.90;;;;;;5032730;28;20449;-54
2022/07/16 03:33:06;;;;;;;5.72;4.53;;;12.40;99.90;;;;;;5032658;28;20032;-55
2022/07/16 03:35:32;;;;;;;8.82;5.05;;;12.50;99.90;;;;;;5032329;28;20104;-54
2022/07/16 03:41:01;;;;;;;7.93;5.10;;;12.60;99.90;;;;;;5032428;28;20072;-52
2022/07/16 03:43:32;;;;;;;;;;;12.60;99.90;;;;;;5032145;28;20069;-50
2022/07/16 03:45:58;;;;;;;13.98;4.55;;;12.60;99.90;;;;;;5032275;28;19963;-53
2022/07/16 03:48:24;;;;;;;7.50;4.30;;;12.60;99.90;;;;;;5032128;28;20484;-56
2022/07/16 03:50:49;;;;;;;7.70;4.90;;;12.60;99.90;;;;;;5031819;28;20527;-55
2022/07/16 03:53:15;;;;;;;8.70;4.70;;;12.60;99.90;;;;;;5031993;28;20029;-53
2022/07/16 03:55:40;;;;;;;12.50;4.47;;;12.60;99.90;;;;;;5031729;28;20112;-56
2022/07/16 03:58:06;;;;;;;13.48;4.80;;;12.70;99.90;;;;;;5032068;28;20080;-57
2022/07/16 04:00:32;;;;;;;9.27;5.07;;;12.70;99.90;;;;;;5032234;28;20105;-55
2022/07/16 04:02:57;;;;;;;19.27;4.63;;;12.70;99.90;;;;;;5031891;28;20033;-56
2022/07/16 04:05:23;;;;;;;11.90;4.78;;;12.80;99.90;;;;;;5031887;28;20057;-54
2022/07/16 04:07:49;;;;;;;19.77;5.78;;;12.80;99.90;;;;;;5030680;28;20033;-54
2022/07/16 04:10:14;;;;;;;5.68;4.55;;;12.90;99.90;;;;;;5030477;28;20082;-52
2022/07/16 04:12:40;;;;;;;13.30;4.20;;;12.90;99.90;;;;;;5031563;28;20048;-53
2022/07/16 04:15:06;;;;;;;4.43;4.03;;;12.90;99.90;;;;;;5030483;28;20094;-55
2022/07/16 04:17:32;;;;;;;9.82;5.13;;;13.10;99.90;;;;;;5031640;28;20049;-55
2022/07/16 04:19:58;;;;;;;5.95;4.35;;;13.10;99.90;;;;;;5031682;28;20029;-52
2022/07/16 04:22:23;;;;;;;15.77;4.45;;;13.20;99.90;;;;;;5031504;28;20021;-54
2022/07/16 04:24:49;;;;;;;12.95;4.38;;;13.30;99.90;;;;;;5031603;28;20151;-53
2022/07/16 04:27:15;;;;;;;6.40;4.65;;;13.40;99.90;;;;;;5031604;28;20048;-53
2022/07/16 04:29:40;;;;;;;11.63;5.10;;;13.50;99.90;;;;;;5031355;28;20065;-58
2022/07/16 04:32:06;;;;;;;8.73;4.63;;;13.50;99.90;;;;;;5031310;28;20233;-53
2022/07/16 04:34:32;;;;;;;14.50;4.88;;;13.60;99.90;;;;;;5031380;28;20645;-53
2022/07/16 04:36:57;;;;;;;10.13;5.13;;;13.60;99.90;;;;;;5031286;28;20022;-54
2022/07/16 04:39:23;;;;;;;8.57;5.03;;;13.70;99.90;;;;;;5030967;28;20147;-57
2022/07/16 04:41:49;;;;;;;8.52;4.63;;;13.70;99.90;;;;;;5031411;28;20049;-53
2022/07/16 04:44:14;;;;;;;7.03;4.00;;;13.70;99.90;;;;;;5031655;28;20092;-56
2022/07/16 04:46:40;;;;;;;9.82;5.05;;;13.80;99.90;;;;;;5031409;28;20075;-56
2022/07/16 04:49:06;;;;;;;8.63;4.32;;;13.80;99.90;;;;;;5030704;28;20048;-55
2022/07/16 04:51:31;;;;;;;6.18;4.35;;;14.10;99.90;;;;;;5030703;28;20041;-55
2022/07/16 04:53:57;;;;;;;12.30;4.82;;;14.30;99.90;;;;;;5031394;28;20113;-58
2022/07/16 04:56:22;;;;;;;5.80;4.47;;;14.40;99.90;;;;;;5036750;28;20025;-56
2022/07/16 04:58:48;;;;;;;5.70;4.30;;;14.30;99.90;;;;;;5037941;28;20444;-58
2022/07/16 05:01:14;;;;;;;9.50;5.35;;;14.50;99.90;;;;;;5037834;28;20026;-57
2022/07/16 05:03:39;;;;;;;6.40;5.32;;;14.50;99.90;;;;;;5037721;28;20431;-52
2022/07/16 05:06:05;;;;;;;10.98;4.97;;;14.50;99.90;;;;;;5037631;28;20377;-58
2022/07/16 05:08:31;;;;;;;6.40;4.97;;;14.50;99.90;;;;;;5037830;28;20080;-55
2022/07/16 05:10:57;;;;;;;11.73;5.43;;;14.50;99.90;;;;;;5037645;28;20060;-57
2022/07/16 05:13:23;;;;;;;9.65;6.43;;;14.70;99.90;;;;;;5038021;28;20053;-55
2022/07/16 05:15:48;;;;;;;6.70;4.95;;;14.70;99.90;;;;;;5037613;28;20029;-56
2022/07/16 05:18:14;;;;;;;7.72;4.82;;;14.70;99.90;;;;;;5037717;28;20080;-53
2022/07/16 05:20:40;;;;;;;11.43;4.90;;;14.70;99.90;;;;;;5037573;28;20372;-56
2022/07/16 05:23:05;;;;;;;7.72;4.68;;;14.70;99.90;;;;;;5037740;28;20079;-55
2022/07/16 05:25:31;;;;;;;8.07;4.85;;;14.80;99.90;;;;;;5036466;28;20049;-55
2022/07/16 05:27:57;;;;;;;6.53;5.00;;;14.80;99.90;;;;;;5037239;28;20022;-57
2022/07/16 05:30:22;;;;;;;10.15;4.80;;;14.90;99.90;;;;;;5037667;28;20492;-58
2022/07/16 05:32:50;;;;;;;7.03;4.47;;;14.90;99.90;;;;;;5037627;28;20084;-56
2022/07/16 05:35:16;;;;;;;5.38;4.20;;;15.00;99.90;;;;;;5035954;28;20029;-52
2022/07/16 05:37:43;;;;;;;5.68;4.80;;;15.20;99.90;;;;;;5037548;28;20104;-55
2022/07/16 05:40:11;;;;;;;5.45;4.43;;;15.30;99.90;;;;;;5035768;28;20028;-56
2022/07/16 05:42:37;;;;;;;8.13;5.07;;;15.60;99.90;;;;;;5036463;28;20029;-55
2022/07/16 05:45:04;;;;;;;5.70;4.10;;;15.70;99.90;;;;;;5036193;28;20082;-54
2022/07/16 05:47:32;;;;;;;22.05;5.60;;;15.90;99.90;;;;;;5036443;28;20116;-56
2022/07/16 05:49:57;;;;;;;9.93;4.32;;;16.00;99.90;;;;;;5035304;28;20111;-55
2022/07/16 05:52:23;;;;;;;6.88;4.78;;;16.10;99.90;;;;;;5036141;28;20064;-54
2022/07/16 05:54:49;;;;;;;8.82;4.78;;;16.20;99.90;;;;;;5036357;28;20448;-55
2022/07/16 05:57:14;;;;;;;7.75;4.82;;;16.30;99.90;;;;;;5036336;28;20036;-53
2022/07/16 05:59:46;;;;;;;8.88;5.10;;;16.40;99.90;;;;;;5036168;28;20028;-59
2022/07/16 06:02:12;;;;;;;7.38;5.00;;;16.50;99.90;;;;;;5044317;22;20053;-82
2022/07/16 06:04:37;;;;;;;20.00;5.10;;;16.60;99.90;;;;;;5035173;28;20089;-83
2022/07/16 06:07:03;;;;;;;11.07;5.32;;;16.70;99.90;;;;;;5015795;28;20084;-84
2022/07/16 06:09:29;;;;;;;14.98;4.60;;;16.80;99.90;;;;;;5016242;28;20025;-81
2022/07/16 06:11:55;;;;;;;12.10;5.88;;;16.80;99.90;;;;;;5016770;28;20366;-82
2022/07/16 06:14:20;;;;;;;7.95;5.97;;;16.90;99.90;;;;;;5016166;28;20474;-82
2022/07/16 06:16:49;;;;;;;7.70;6.05;;;17.00;99.90;;;;;;5016372;28;20492;-83
2022/07/16 06:19:15;;;;;;;9.75;6.15;;;17.10;99.90;;;;;;5016394;28;20026;-81
2022/07/16 06:21:40;;;;;;;11.50;7.00;;;17.20;99.90;;;;;;5014758;28;20029;-83
2022/07/16 06:24:06;;;;;;;12.48;6.60;;;17.20;99.90;;;;;;5016453;28;20052;-82
2022/07/16 06:26:32;;;;;;;11.02;6.90;;;17.40;99.90;;;;;;5014559;28;20037;-82
2022/07/16 06:28:58;;;;;;;9.20;6.65;;;17.50;99.90;;;;;;5014551;28;20026;-83
2022/07/16 06:31:24;;;;;;;12.30;7.07;;;17.70;99.90;;;;;;5011745;28;20075;-83
2022/07/16 06:33:49;;;;;;;8.40;6.55;;;17.80;99.90;;;;;;5013281;28;20030;-82
2022/07/16 06:36:15;;;;;;;9.65;7.03;;;17.80;99.90;;;;;;5012979;28;20363;-83
2022/07/16 06:38:41;;;;;;;11.90;6.32;;;17.90;99.90;;;;;;5028422;28;20153;-83
2022/07/16 06:41:06;;;;;;;9.85;7.25;;;17.90;99.90;;;;;;5015660;28;20385;-83
2022/07/16 06:43:32;;;;;;;9.77;6.57;;;18.00;99.90;;;;;;5015673;28;20030;-83
2022/07/16 06:45:58;;;;;;;8.10;6.38;;;17.90;99.90;;;;;;5013425;28;20034;-82
2022/07/16 06:48:23;;;;;;;12.23;6.93;;;18.10;99.90;;;;;;5012861;28;20393;-81
2022/07/16 06:50:49;;;;;;;9.95;6.28;;;18.30;99.90;;;;;;5011961;28;20026;-82
2022/07/16 06:53:15;;;;;;;14.40;6.60;;;18.40;99.90;;;;;;5012824;28;20025;-84
2022/07/16 06:55:40;;;;;;;10.98;6.75;;;18.40;99.90;;;;;;5011390;28;20028;-83
2022/07/16 06:58:06;;;;;;;12.95;6.80;;;18.50;99.90;;;;;;5012758;28;20469;-82
2022/07/16 07:00:32;;;;;;;12.05;6.50;;;18.50;99.90;;;;;;5012563;28;20079;-84
2022/07/16 07:02:57;;;;;;;10.60;6.75;;;18.60;99.90;;;;;;5012451;28;20042;-82
2022/07/16 07:05:23;;;;;;;9.57;5.88;;;18.60;99.90;;;;;;5011210;28;20067;-82
2022/07/16 07:07:49;;;;;;;8.13;6.25;;;18.70;99.90;;;;;;5012492;28;20080;-83
2022/07/16 07:10:14;;;;;;;15.90;6.00;;;18.80;99.90;;;;;;5012520;28;20028;-81
2022/07/16 07:12:40;;;;;;;8.77;5.80;;;19.00;99.90;;;;;;5012233;28;20434;-82
2022/07/16 07:15:06;;;;;;;9.93;6.25;;;19.10;99.90;;;;;;5012366;28;20026;-81
2022/07/16 07:17:32;;;;;;;11.30;5.93;;;19.10;99.90;;;;;;5012201;28;20068;-83
2022/07/16 07:19:58;;;;;;;8.70;5.25;;;19.20;99.90;;;;;;5011999;28;20462;-82
2022/07/16 07:22:23;;;;;;;7.15;5.28;;;19.40;99.90;;;;;;5012799;28;20028;-81
2022/07/16 07:24:50;;;;;;;6.25;5.38;;;19.60;99.90;;;;;;5027343;28;20033;-84
2022/07/16 07:27:16;;;;;;;11.95;5.20;;;19.40;99.90;;;;;;5012335;28;20033;-84
2022/07/16 07:29:42;;;;;;;10.02;5.13;;;19.50;99.90;;;;;;5011966;28;20032;-81
2022/07/16 07:32:08;;;;;;;6.68;4.85;;;19.80;99.90;;;;;;5010641;28;20026;-83
2022/07/16 07:34:33;;;;;;;7.50;4.85;;;20.00;99.90;;;;;;5011985;28;20032;-82
2022/07/16 07:36:59;;;;;;;12.25;5.03;;;20.10;99.90;;;;;;5012105;28;20412;-83
2022/07/16 07:39:25;;;;;;;9.55;4.47;;;20.20;99.90;;;;;;5012118;28;20359;-82
2022/07/16 07:41:50;;;;;;;6.20;4.10;;;20.30;99.90;;;;;;5011800;28;20037;-82
2022/07/16 07:44:16;;;;;;;7.78;5.32;;;20.20;99.90;;;;;;5012167;28;20042;-83
2022/07/16 07:46:42;;;;;;;7.38;4.47;;;20.40;99.90;;;;;;5011974;28;20484;-83
2022/07/16 07:49:08;;;;;;;8.48;4.82;;;20.50;99.90;;;;;;5011744;28;20081;-81
2022/07/16 07:51:34;;;;;;;9.90;5.22;;;20.50;99.90;;;;;;5011566;28;20053;-82
2022/07/16 07:54:00;;;;;;;8.30;5.32;;;20.40;99.90;;;;;;5011643;28;20025;-82
2022/07/16 07:56:25;;;;;;;10.50;4.57;;;20.50;99.90;;;;;;5011607;28;20389;-82
2022/07/16 07:58:51;;;;;;;8.15;4.55;;;20.40;99.90;;;;;;5011686;28;20057;-82
2022/07/16 08:01:17;;;;;;;10.65;5.13;;;20.60;99.90;;;;;;5010926;28;20049;-82
2022/07/16 08:03:42;;;;;;;7.40;4.45;;;20.80;98.90;;;;;;5010132;28;20026;-80
2022/07/16 08:06:08;;;;;;;6.70;3.97;;;20.90;98.20;;;;;;5010193;28;20381;-83
2022/07/16 08:08:34;;;;;;;8.38;3.63;;;21.00;96.90;;;;;;5011272;28;20083;-80
2022/07/16 08:10:59;;;;;;;9.18;3.38;;;21.10;96.40;;;;;;5010014;28;20160;-81
2022/07/16 08:13:25;;;;;;;10.05;4.55;;;21.10;95.60;;;;;;5010896;28;20428;-82
2022/07/16 08:15:50;;;;;;;4.70;2.83;;;21.10;96.40;;;;;;5011254;28;20025;-82
2022/07/16 08:18:16;;;;;;;9.32;4.07;;;21.20;90.80;;;;;;5010950;28;20263;-83
2022/07/16 08:20:42;;;;;;;5.72;3.85;;;21.50;94.20;;;;;;5010652;28;20109;-82
2022/07/16 08:23:07;;;;;;;13.40;3.50;;;21.80;94.60;;;;;;5011331;28;20030;-81
2022/07/16 08:25:45;;;;;;;6.43;2.65;;;21.90;93.40;;;;;;5009953;28;20025;-83
2022/07/16 08:28:12;;;;;;;5.63;2.67;;;21.90;91.00;;;;;;5011032;28;20030;-82
2022/07/16 08:30:38;;;;;;;7.68;2.50;;;22.10;87.80;;;;;;5009011;28;20389;-81
2022/07/16 08:33:04;;;;;;;7.63;2.78;;;22.10;89.50;;;;;;5011359;28;20362;-83
2022/07/16 08:35:29;;;;;;;5.82;2.80;;;21.90;84.00;;;;;;5010630;28;20105;-84
2022/07/16 08:37:55;;;;;;;7.80;3.47;;;21.90;89.10;;;;;;5009511;28;20420;-81
2022/07/16 08:40:22;;;;;;;4.78;2.90;;;22.10;86.50;;;;;;5026146;28;20052;-85
2022/07/16 08:42:49;;;;;;;9.93;3.15;;;22.00;82.00;;;;;;5009602;28;20512;-84
2022/07/16 08:45:16;;;;;;;6.50;2.55;;;22.00;82.50;;;;;;5009706;28;20029;-83
2022/07/16 08:47:42;;;;;;;9.15;3.00;;;22.00;84.00;;;;;;5011302;28;20025;-82
2022/07/16 08:50:10;;;;;;;14.75;3.80;;;22.00;82.10;;;;;;5009541;28;20104;-81
2022/07/16 08:52:46;;;;;;;8.18;2.90;;;22.40;81.70;;;;;;5006597;28;20065;-81
2022/07/16 08:55:12;;;;;;;12.57;2.90;;;22.30;80.10;;;;;;5010934;28;20437;-81
2022/07/16 08:57:40;;;;;;;7.00;2.40;;;22.50;77.70;;;;;;5009487;28;20048;-82
2022/07/16 09:00:10;;;;;;;3.78;2.67;;;22.40;76.70;;;;;;5010409;28;20061;-84
2022/07/16 09:02:36;;;;;;;11.57;2.92;;;22.30;80.40;;;;;;5008973;28;20053;-83
2022/07/16 09:05:03;;;;;;;3.97;2.40;;;22.30;80.10;;;;;;5009639;28;20694;-83
2022/07/16 09:07:29;;;;;;;5.30;3.33;;;22.10;77.70;;;;;;5010723;28;20022;-82
2022/07/16 09:09:54;;;;;;;7.75;3.17;;;22.30;79.60;;;;;;5025897;28;20108;-83
2022/07/16 09:12:44;;;;;;;4.32;2.80;;;22.60;78.10;;;;;;5010304;28;20021;-82
2022/07/16 09:15:28;;;;;;;13.23;3.25;;;22.40;79.30;;;;;;5011039;28;20493;-83
2022/07/16 09:18:15;;;;;;;6.65;2.92;;;22.60;76.50;;;;;;5022074;28;20019;-81
2022/07/16 09:21:00;;;;;;;6.72;2.50;;;22.50;78.50;;;;;;5020693;28;20034;-81
2022/07/16 09:23:32;;;;;;;14.23;2.78;;;22.80;76.80;;;;;;5009796;28;20030;-82
2022/07/16 09:26:04;;;;;;;4.03;2.45;;;23.20;79.20;;;;;;5010777;28;20564;-82
2022/07/16 09:28:50;;;;;;;5.18;2.55;;;23.40;77.40;;;;;;5009399;28;20026;-82
2022/07/16 09:31:41;;;;;;;4.03;3.05;;;23.20;77.50;;;;;;5028063;28;20061;-82
2022/07/16 09:34:09;;;;;;;14.90;3.55;;;23.30;74.40;;;;;;5003316;28;20050;-82
2022/07/16 09:36:37;;;;;;;5.82;3.08;;;23.20;74.60;;;;;;5031068;28;20025;-82
2022/07/16 09:39:05;;;;;;;5.68;3.10;;;23.50;78.50;;;;;;5021048;28;20014;-83
2022/07/16 09:41:42;;;;;;;5.90;3.63;;;23.50;74.50;;;;;;5013740;28;20068;-81
2022/07/16 09:44:17;;;;;;;7.57;3.13;;;23.10;77.40;;;;;;5016432;28;20018;-82
2022/07/16 09:47:04;;;;;;;7.72;3.10;;;23.40;73.80;;;;;;5015254;28;20447;-81
2022/07/16 09:49:36;;;;;;;7.57;3.38;;;23.00;73.30;;;;;;5016120;28;20444;-82
2022/07/16 09:52:25;;;;;;;3.65;3.22;;;23.40;72.30;;;;;;5013425;28;20034;-82
2022/07/16 09:54:55;;;;;;;13.75;3.63;;;23.90;81.00;;;;;;5013968;28;20029;-82
2022/07/16 09:57:21;;;;;;;3.33;2.50;;;24.00;72.10;;;;;;5013822;28;20026;-81
2022/07/16 09:59:47;;;;;;;11.65;4.47;;;23.90;72.70;;;;;;5014055;28;20018;-84
2022/07/16 10:02:13;;;;;;;5.80;3.10;;;24.60;72.00;;;;;;5011966;28;20042;-83
2022/07/16 10:04:40;;;;;;;8.10;3.85;;;24.90;79.30;;;;;;5012260;28;20049;-83
2022/07/16 10:07:06;;;;;;;16.10;3.22;;;25.00;77.30;;;;;;5014604;28;20068;-84
2022/07/16 10:09:32;;;;;;;6.82;3.20;;;25.30;70.10;;;;;;5013403;28;20018;-82
2022/07/16 10:12:13;;;;;;;5.38;2.85;;;25.10;69.90;;;;;;5011218;28;20022;-83
2022/07/16 10:14:50;;;;;;;5.88;3.40;;;24.80;70.80;;;;;;5003453;28;20050;-83
2022/07/16 10:17:21;;;;;;;8.27;3.70;;;24.40;70.10;;;;;;5003329;28;20054;-81
2022/07/16 10:19:59;;;;;;;14.07;3.17;;;24.30;70.80;;;;;;5002934;28;20026;-83
2022/07/16 10:22:34;;;;;;;4.07;2.40;;;24.40;69.00;;;;;;5002930;28;20045;-83
2022/07/16 10:25:00;;;;;;;4.82;3.05;;;24.60;73.90;;;;;;4989818;28;20489;-83
2022/07/16 10:27:35;;;;;;;4.95;3.85;;;24.50;76.40;;;;;;5003030;28;20084;-80
2022/07/16 10:30:13;;;;;;;4.57;3.20;;;24.50;70.10;;;;;;5003973;28;20088;-81
2022/07/16 10:33:02;;;;;;;4.55;3.08;;;23.70;69.80;;;;;;5002301;28;20382;-85
2022/07/16 10:35:28;;;;;;;8.60;2.90;;;24.10;70.10;;;;;;5002661;28;20033;-82
2022/07/16 10:38:07;;;;;;;4.88;3.25;;;24.70;67.60;;;;;;5001507;28;20026;-82
2022/07/16 10:40:35;;;;;;;3.88;2.80;;;24.70;69.70;;;;;;4988217;28;20037;-81
2022/07/16 10:43:16;;;;;;;7.80;3.63;;;24.50;68.90;;;;;;5002277;28;20033;-83
2022/07/16 10:45:59;;;;;;;7.05;3.28;;;23.90;69.60;;;;;;5002784;28;20038;-83
2022/07/16 10:48:30;;;;;;;5.15;3.15;;;23.50;68.20;;;;;;5003353;28;20264;-83
2022/07/16 10:51:23;;;;;;;9.93;3.80;;;23.40;69.60;;;;;;5003849;28;20401;-84
2022/07/16 10:53:58;;;;;;;5.93;3.67;;;23.80;70.50;;;;;;5000576;28;20609;-83
2022/07/16 10:56:38;;;;;;;6.10;3.30;;;23.70;68.80;;;;;;5001702;28;20034;-81
2022/07/16 10:59:06;;;;;;;12.35;2.90;;;23.60;71.30;;;;;;5003826;28;20108;-83
2022/07/16 11:01:32;;;;;;;8.52;3.65;;;23.90;71.70;;;;;;5002797;28;20049;-81
2022/07/16 11:03:58;;;;;;;5.93;2.92;;;24.50;73.80;;;;;;5002449;28;20030;-83
2022/07/16 11:06:24;;;;;;;9.93;3.75;;;25.20;72.20;;;;;;5003683;28;20037;-84
2022/07/16 11:08:53;;;;;;;5.45;3.35;;;25.70;70.30;;;;;;5006347;28;20044;-82
2022/07/16 11:11:20;;;;;;;8.05;3.00;;;25.70;67.70;;;;;;5003069;28;20038;-82
2022/07/16 11:14:05;;;;;;;6.90;2.90;;;25.80;68.60;;;;;;5002579;28;20385;-83
2022/07/16 11:16:47;;;;;;;9.45;3.38;;;25.80;65.50;;;;;;5010380;28;20100;-83
2022/07/16 11:19:13;;;;;;;8.02;3.33;;;25.80;66.60;;;;;;5005122;28;20495;-84
2022/07/16 11:22:00;;;;;;;7.13;3.17;;;25.80;66.40;;;;;;5003173;28;20030;-83
2022/07/16 11:24:27;;;;;;;7.53;3.42;;;26.10;64.90;;;;;;5004815;28;20045;-81
2022/07/16 11:26:54;;;;;;;3.85;2.35;;;26.60;65.30;;;;;;5005447;28;20022;-81
2022/07/16 11:29:21;;;;;;;7.70;2.95;;;26.70;65.10;;;;;;5005148;28;20057;-82
2022/07/16 11:31:47;;;;;;;5.57;2.88;;;26.70;66.80;;;;;;5008128;28;20121;-82
2022/07/16 11:34:14;;;;;;;3.83;3.00;;;26.90;63.00;;;;;;5005935;28;20254;-82
2022/07/16 11:36:44;;;;;;;5.80;2.83;;;26.80;65.90;;;;;;5006262;28;20045;-83
2022/07/16 11:39:12;;;;;;;5.03;3.05;;;26.10;63.50;;;;;;5005172;28;20618;-83
2022/07/16 11:41:40;;;;;;;5.30;3.33;;;26.30;63.40;;;;;;5006867;28;20034;-82
2022/07/16 11:44:12;;;;;;;12.43;3.28;;;26.80;66.50;;;;;;5004472;28;20058;-82
2022/07/16 11:46:44;;;;;;;6.00;3.17;;;26.40;64.40;;;;;;5005815;28;20026;-83
2022/07/16 11:49:12;;;;;;;5.93;3.17;;;26.70;68.30;;;;;;5003777;28;20116;-81
2022/07/16 11:51:41;;;;;;;5.18;3.00;;;27.00;65.10;;;;;;5003954;28;20034;-85
2022/07/16 11:54:07;;;;;;;8.82;3.60;;;26.60;61.20;;;;;;5001156;28;20481;-85
2022/07/16 11:56:39;;;;;;;5.32;2.90;;;25.60;60.70;;;;;;5006024;28;20034;-84
2022/07/16 11:59:16;;;;;;;10.07;2.90;;;26.10;63.50;;;;;;5005454;28;20523;-82
2022/07/16 12:01:42;;;;;;;7.72;3.38;;;26.20;64.30;;;;;;5004820;28;20049;-81
2022/07/16 12:04:08;;;;;;;4.10;2.83;;;26.90;64.30;;;;;;5004974;28;20127;-82
2022/07/16 12:06:34;;;;;;;4.53;2.35;;;27.40;65.10;;;;;;5002785;28;20119;-84
2022/07/16 12:09:00;;;;;;;8.20;3.05;;;27.10;60.50;;;;;;5001800;28;20033;-83
2022/07/16 12:11:31;;;;;;;9.30;3.30;;;26.50;57.80;;;;;;5002725;28;20393;-81
2022/07/16 12:13:58;;;;;;;9.05;3.25;;;26.70;59.40;;;;;;5002455;28;20076;-85
2022/07/16 12:16:24;;;;;;;8.63;2.83;;;27.50;60.00;;;;;;5005233;28;20030;-82
2022/07/16 12:19:03;;;;;;;3.35;2.83;;;28.10;58.70;;;;;;5003853;28;20053;-85
2022/07/16 12:21:34;;;;;;;9.95;3.22;;;27.70;57.10;;;;;;5005957;28;20034;-81
2022/07/16 12:24:01;;;;;;;6.13;3.42;;;28.20;62.00;;;;;;5005480;28;20534;-83
2022/07/16 12:26:32;;;;;;;4.22;2.13;;;29.60;55.50;;;;;;5005905;28;20040;-84
2022/07/16 12:28:58;;;;;;;6.18;2.35;;;30.40;57.00;;;;;;5006089;28;21401;-85
2022/07/16 12:31:31;;;;;;;7.38;2.25;;;30.60;50.80;;;;;;5006021;28;20029;-85
2022/07/16 12:33:59;;;;;;;4.32;2.40;;;30.90;53.60;;;;;;5005387;28;20041;-82
2022/07/16 12:36:31;;;;;;;6.80;3.15;;;30.70;51.80;;;;;;5005708;28;20038;-82
2022/07/16 12:39:04;;;;;;;4.65;2.63;;;30.50;52.80;;;;;;5006156;28;20117;-82
2022/07/16 12:41:40;;;;;;;;;;;28.70;50.40;;;;;;5006057;28;20121;-82
2022/07/16 12:44:10;;;;;;;5.40;2.33;;;29.20;53.00;;;;;;5005641;28;19944;-84
2022/07/16 12:46:47;;;;;;;3.33;2.28;;;30.40;49.00;;;;;;5005974;28;20030;-82
2022/07/16 12:49:15;;;;;;;19.73;2.15;;;30.00;49.90;;;;;;5002862;28;20049;-82
2022/07/16 12:51:43;;;;;;;8.70;2.42;;;31.00;48.20;;;;;;5005333;28;20025;-83
2022/07/16 12:54:10;;;;;;;6.50;2.30;;;31.40;46.30;;;;;;5004425;28;20034;-84